Terminal Aerodrome Forecast
Issued by NWS

Current Version | Previous Version | Text Only | Print | Product List | Glossary On
Versions: 1 2 3 4 5 6 7 8 9 10 11 12 13
000
FTUS43 KAPX 040525
TAFMBL
TAF
KMBL 040525Z 0406/0506 21007KT 5SM -TSRA SCT025 OVC050CB
      WS020/22036KT
     FM040900 23006KT 4SM -SHRA BR OVC030 WS020/25035KT
     FM041500 33009KT P6SM VCSH SCT050 BKN100
     FM041700 35008KT P6SM SCT050
     FM050100 VRB03KT P6SM SCT250
      AMD LTD TO CLD VIS AND WIND=

USA.gov is the U.S. government's official web portal to all federal, state and local government web resources and services.